Arleta, California
Current Conditions -  °F | °C
As of 10:53 PM on Friday 24 Oct 2014 (Local Time) from KBUR Reporting Station
Clear Clear  
Wind Chill: 71°   Ceiling: Unl
Heat Index: 71°   Visibility: 10mi
Dew Point: 58°   Wind: 0mph
Humidity: 63%   Direction: NA
Pressure: 30"   Gusts: NA
Location:  34.2574°N, 118.255°W
Report Text: KBUR 250553Z 00000KT 10SM CLR 22/14 A3000 RMK AO2 SLP147 T02170144 10300 20217 53015
Loading
Personal Weather Stations






























Interactive Weather Map New forecast layout! Learn more

10-Day Weather Forecast

Advertisements
Track Severe Weather on mobile